sensor_id;sensor_type;location;lat;lon;timestamp;pressure;altitude;pressure_sealevel;temperature;humidity
39954;BME280;25631;51.516;-0.470;2024-01-30T00:01:38;101834.50;;;10.23;44.34
39954;BME280;25631;51.516;-0.470;2024-01-30T00:04:14;101826.07;;;10.50;44.12
39954;BME280;25631;51.516;-0.470;2024-01-30T00:06:51;101823.84;;;10.82;44.12
39954;BME280;25631;51.516;-0.470;2024-01-30T00:09:28;101820.24;;;10.69;44.11
39954;BME280;25631;51.516;-0.470;2024-01-30T00:12:05;101812.86;;;10.71;44.22
39954;BME280;25631;51.516;-0.470;2024-01-30T00:14:42;101812.16;;;10.78;44.10
39954;BME280;25631;51.516;-0.470;2024-01-30T00:17:18;101812.34;;;10.46;44.32
39954;BME280;25631;51.516;-0.470;2024-01-30T00:19:55;101813.52;;;10.84;44.28
39954;BME280;25631;51.516;-0.470;2024-01-30T00:22:31;101820.04;;;10.66;44.27
39954;BME280;25631;51.516;-0.470;2024-01-30T00:25:08;101830.63;;;10.61;44.30
39954;BME280;25631;51.516;-0.470;2024-01-30T00:27:45;101834.08;;;10.76;44.23
39954;BME280;25631;51.516;-0.470;2024-01-30T00:30:21;101823.66;;;10.28;44.19
39954;BME280;25631;51.516;-0.470;2024-01-30T00:32:57;101820.50;;;10.42;43.91
39954;BME280;25631;51.516;-0.470;2024-01-30T00:35:34;101829.64;;;10.07;43.82
39954;BME280;25631;51.516;-0.470;2024-01-30T00:38:10;101831.31;;;10.35;43.71
39954;BME280;25631;51.516;-0.470;2024-01-30T00:40:47;101826.85;;;9.68;43.73
39954;BME280;25631;51.516;-0.470;2024-01-30T00:43:23;101830.13;;;10.40;43.07
39954;BME280;25631;51.516;-0.470;2024-01-30T00:46:00;101832.40;;;9.36;43.38
39954;BME280;25631;51.516;-0.470;2024-01-30T00:48:36;101827.67;;;9.94;43.00
39954;BME280;25631;51.516;-0.470;2024-01-30T00:51:13;101814.76;;;9.60;42.90
39954;BME280;25631;51.516;-0.470;2024-01-30T00:53:49;101800.39;;;9.91;42.64
39954;BME280;25631;51.516;-0.470;2024-01-30T00:56:26;101808.46;;;9.90;42.52
39954;BME280;25631;51.516;-0.470;2024-01-30T00:59:02;101804.69;;;9.42;43.05
39954;BME280;25631;51.516;-0.470;2024-01-30T01:01:38;101801.53;;;9.55;42.94
39954;BME280;25631;51.516;-0.470;2024-01-30T01:04:15;101798.27;;;9.52;43.03
39954;BME280;25631;51.516;-0.470;2024-01-30T01:06:52;101796.18;;;9.61;43.17
39954;BME280;25631;51.516;-0.470;2024-01-30T01:09:28;101804.48;;;9.56;42.87
39954;BME280;25631;51.516;-0.470;2024-01-30T01:12:06;101794.16;;;9.45;42.74
39954;BME280;25631;51.516;-0.470;2024-01-30T01:14:43;101807.35;;;9.64;42.61
39954;BME280;25631;51.516;-0.470;2024-01-30T01:17:19;101825.35;;;9.77;42.25
39954;BME280;25631;51.516;-0.470;2024-01-30T01:19:57;101824.75;;;9.47;41.85
39954;BME280;25631;51.516;-0.470;2024-01-30T01:22:34;101811.67;;;9.12;41.59
39954;BME280;25631;51.516;-0.470;2024-01-30T01:25:10;101832.10;;;8.96;41.33
39954;BME280;25631;51.516;-0.470;2024-01-30T01:27:47;101851.93;;;8.85;41.82
39954;BME280;25631;51.516;-0.470;2024-01-30T01:30:23;101841.24;;;8.83;41.79
39954;BME280;25631;51.516;-0.470;2024-01-30T01:33:00;101849.13;;;8.71;42.09
39954;BME280;25631;51.516;-0.470;2024-01-30T01:35:36;101825.49;;;9.13;42.01
39954;BME280;25631;51.516;-0.470;2024-01-30T01:38:13;101816.06;;;8.79;42.33
39954;BME280;25631;51.516;-0.470;2024-01-30T01:40:49;101836.12;;;8.06;42.97
39954;BME280;25631;51.516;-0.470;2024-01-30T01:43:26;101843.62;;;8.76;42.64
39954;BME280;25631;51.516;-0.470;2024-01-30T01:46:02;101839.46;;;9.02;42.48
39954;BME280;25631;51.516;-0.470;2024-01-30T01:48:39;101840.12;;;8.98;42.56
39954;BME280;25631;51.516;-0.470;2024-01-30T01:51:16;101841.20;;;9.04;42.43
39954;BME280;25631;51.516;-0.470;2024-01-30T01:53:53;101838.13;;;8.99;42.41
39954;BME280;25631;51.516;-0.470;2024-01-30T01:56:31;101835.65;;;9.30;42.24
39954;BME280;25631;51.516;-0.470;2024-01-30T01:59:08;101843.42;;;8.96;42.27
39954;BME280;25631;51.516;-0.470;2024-01-30T02:01:45;101847.57;;;9.15;42.25
39954;BME280;25631;51.516;-0.470;2024-01-30T02:04:23;101859.43;;;8.92;42.39
39954;BME280;25631;51.516;-0.470;2024-01-30T02:06:59;101840.15;;;8.84;42.30
39954;BME280;25631;51.516;-0.470;2024-01-30T02:09:36;101827.56;;;8.24;42.30
39954;BME280;25631;51.516;-0.470;2024-01-30T02:12:12;101835.15;;;9.01;42.39
39954;BME280;25631;51.516;-0.470;2024-01-30T02:14:49;101844.31;;;8.98;42.46
39954;BME280;25631;51.516;-0.470;2024-01-30T02:17:26;101844.28;;;8.70;42.70
39954;BME280;25631;51.516;-0.470;2024-01-30T02:20:03;101840.86;;;8.60;42.85
39954;BME280;25631;51.516;-0.470;2024-01-30T02:22:40;101840.42;;;8.38;42.87
39954;BME280;25631;51.516;-0.470;2024-01-30T02:25:17;101840.32;;;8.76;42.72
39954;BME280;25631;51.516;-0.470;2024-01-30T02:27:53;101849.82;;;8.66;42.71
39954;BME280;25631;51.516;-0.470;2024-01-30T02:30:30;101859.37;;;8.63;42.95
39954;BME280;25631;51.516;-0.470;2024-01-30T02:33:06;101861.03;;;8.65;43.02
39954;BME280;25631;51.516;-0.470;2024-01-30T02:35:43;101851.29;;;8.64;42.84
39954;BME280;25631;51.516;-0.470;2024-01-30T02:38:19;101839.25;;;8.46;43.10
39954;BME280;25631;51.516;-0.470;2024-01-30T02:40:55;101830.16;;;8.35;43.26
39954;BME280;25631;51.516;-0.470;2024-01-30T02:43:32;101824.34;;;8.34;43.42
39954;BME280;25631;51.516;-0.470;2024-01-30T02:46:08;101838.69;;;8.26;43.61
39954;BME280;25631;51.516;-0.470;2024-01-30T02:48:45;101828.05;;;8.05;43.62
39954;BME280;25631;51.516;-0.470;2024-01-30T02:51:21;101829.16;;;8.05;43.69
39954;BME280;25631;51.516;-0.470;2024-01-30T02:53:58;101835.39;;;7.91;43.86
39954;BME280;25631;51.516;-0.470;2024-01-30T02:56:34;101835.17;;;8.08;43.89
39954;BME280;25631;51.516;-0.470;2024-01-30T02:59:10;101834.46;;;8.08;44.04
39954;BME280;25631;51.516;-0.470;2024-01-30T03:01:47;101833.42;;;7.92;44.31
39954;BME280;25631;51.516;-0.470;2024-01-30T03:04:23;101843.90;;;8.21;44.16
39954;BME280;25631;51.516;-0.470;2024-01-30T03:07:00;101838.64;;;7.90;44.56
39954;BME280;25631;51.516;-0.470;2024-01-30T03:09:37;101838.41;;;8.03;44.56
39954;BME280;25631;51.516;-0.470;2024-01-30T03:12:13;101840.62;;;7.82;44.76
39954;BME280;25631;51.516;-0.470;2024-01-30T03:14:50;101841.54;;;8.12;44.47
39954;BME280;25631;51.516;-0.470;2024-01-30T03:17:26;101845.06;;;8.30;44.28
39954;BME280;25631;51.516;-0.470;2024-01-30T03:20:03;101851.17;;;7.99;44.37
39954;BME280;25631;51.516;-0.470;2024-01-30T03:22:39;101848.31;;;8.00;44.23
39954;BME280;25631;51.516;-0.470;2024-01-30T03:25:15;101845.77;;;7.90;44.56
39954;BME280;25631;51.516;-0.470;2024-01-30T03:27:52;101845.53;;;8.04;44.41
39954;BME280;25631;51.516;-0.470;2024-01-30T03:30:28;101843.55;;;7.85;44.65
39954;BME280;25631;51.516;-0.470;2024-01-30T03:33:05;101851.07;;;8.09;44.53
39954;BME280;25631;51.516;-0.470;2024-01-30T03:35:41;101855.32;;;8.12;44.60
39954;BME280;25631;51.516;-0.470;2024-01-30T03:38:18;101848.09;;;8.18;44.45
39954;BME280;25631;51.516;-0.470;2024-01-30T03:40:54;101848.88;;;8.22;44.73
39954;BME280;25631;51.516;-0.470;2024-01-30T03:43:30;101847.89;;;8.06;44.87
39954;BME280;25631;51.516;-0.470;2024-01-30T03:46:07;101847.70;;;8.47;44.62
39954;BME280;25631;51.516;-0.470;2024-01-30T03:48:45;101849.71;;;8.39;44.49
39954;BME280;25631;51.516;-0.470;2024-01-30T03:51:22;101852.67;;;8.35;44.36
39954;BME280;25631;51.516;-0.470;2024-01-30T03:53:58;101856.21;;;8.06;44.38
39954;BME280;25631;51.516;-0.470;2024-01-30T03:56:35;101854.65;;;8.13;44.30
39954;BME280;25631;51.516;-0.470;2024-01-30T03:59:11;101858.17;;;8.31;44.26
39954;BME280;25631;51.516;-0.470;2024-01-30T04:01:47;101851.85;;;8.64;44.02
39954;BME280;25631;51.516;-0.470;2024-01-30T04:04:24;101854.37;;;8.29;44.09
39954;BME280;25631;51.516;-0.470;2024-01-30T04:07:00;101849.07;;;8.55;44.04
39954;BME280;25631;51.516;-0.470;2024-01-30T04:09:38;101850.30;;;8.55;44.09
39954;BME280;25631;51.516;-0.470;2024-01-30T04:12:15;101853.14;;;8.41;44.15
39954;BME280;25631;51.516;-0.470;2024-01-30T04:14:51;101851.18;;;8.53;44.05
39954;BME280;25631;51.516;-0.470;2024-01-30T04:17:27;101851.15;;;8.40;44.12
39954;BME280;25631;51.516;-0.470;2024-01-30T04:20:05;101850.62;;;8.48;44.04
39954;BME280;25631;51.516;-0.470;2024-01-30T04:22:42;101851.91;;;8.45;44.20
39954;BME280;25631;51.516;-0.470;2024-01-30T04:25:18;101854.75;;;8.26;44.36
39954;BME280;25631;51.516;-0.470;2024-01-30T04:27:55;101855.74;;;8.58;44.29
39954;BME280;25631;51.516;-0.470;2024-01-30T04:30:31;101859.52;;;8.59;44.26
39954;BME280;25631;51.516;-0.470;2024-01-30T04:33:08;101862.58;;;8.49;44.21
39954;BME280;25631;51.516;-0.470;2024-01-30T04:35:44;101863.79;;;8.46;44.18
39954;BME280;25631;51.516;-0.470;2024-01-30T04:38:21;101868.66;;;8.41;44.29
39954;BME280;25631;51.516;-0.470;2024-01-30T04:40:57;101875.88;;;8.55;44.38
39954;BME280;25631;51.516;-0.470;2024-01-30T04:43:34;101880.69;;;8.13;44.72
39954;BME280;25631;51.516;-0.470;2024-01-30T04:46:10;101886.83;;;8.50;44.45
39954;BME280;25631;51.516;-0.470;2024-01-30T04:48:47;101886.94;;;7.89;44.03
39954;BME280;25631;51.516;-0.470;2024-01-30T04:51:23;101884.34;;;7.89;43.59
39954;BME280;25631;51.516;-0.470;2024-01-30T04:53:59;101896.61;;;7.50;43.51
39954;BME280;25631;51.516;-0.470;2024-01-30T04:56:36;101902.24;;;8.05;43.39
39954;BME280;25631;51.516;-0.470;2024-01-30T04:59:12;101901.90;;;7.30;42.80
39954;BME280;25631;51.516;-0.470;2024-01-30T05:01:49;101911.17;;;7.54;42.39
39954;BME280;25631;51.516;-0.470;2024-01-30T05:04:25;101921.73;;;7.40;42.51
39954;BME280;25631;51.516;-0.470;2024-01-30T05:07:02;101927.71;;;7.41;42.85
39954;BME280;25631;51.516;-0.470;2024-01-30T05:09:38;101927.43;;;7.08;43.47
39954;BME280;25631;51.516;-0.470;2024-01-30T05:12:14;101921.56;;;7.28;43.41
39954;BME280;25631;51.516;-0.470;2024-01-30T05:14:51;101928.72;;;7.38;43.28
39954;BME280;25631;51.516;-0.470;2024-01-30T05:17:27;101932.09;;;7.48;43.23
39954;BME280;25631;51.516;-0.470;2024-01-30T05:20:04;101939.32;;;6.82;43.54
39954;BME280;25631;51.516;-0.470;2024-01-30T05:22:41;101946.84;;;6.89;43.59
39954;BME280;25631;51.516;-0.470;2024-01-30T05:25:17;101952.46;;;6.72;43.67
39954;BME280;25631;51.516;-0.470;2024-01-30T05:27:54;101962.81;;;6.97;43.49
39954;BME280;25631;51.516;-0.470;2024-01-30T05:30:30;101966.93;;;6.93;43.57
39954;BME280;25631;51.516;-0.470;2024-01-30T05:33:07;101968.97;;;6.99;43.44
39954;BME280;25631;51.516;-0.470;2024-01-30T05:35:43;101973.23;;;6.33;43.76
39954;BME280;25631;51.516;-0.470;2024-01-30T05:38:20;101977.70;;;6.91;43.59
39954;BME280;25631;51.516;-0.470;2024-01-30T05:40:56;101985.74;;;6.82;43.60
39954;BME280;25631;51.516;-0.470;2024-01-30T05:43:33;101981.41;;;6.76;43.77
39954;BME280;25631;51.516;-0.470;2024-01-30T05:46:09;101992.46;;;6.59;44.23
39954;BME280;25631;51.516;-0.470;2024-01-30T05:48:46;101998.46;;;6.51;44.02
39954;BME280;25631;51.516;-0.470;2024-01-30T05:51:22;102009.06;;;6.71;43.81
39954;BME280;25631;51.516;-0.470;2024-01-30T05:53:58;102013.66;;;6.77;44.01
39954;BME280;25631;51.516;-0.470;2024-01-30T05:56:35;102022.48;;;6.39;44.17
39954;BME280;25631;51.516;-0.470;2024-01-30T05:59:12;102029.19;;;6.34;44.26
39954;BME280;25631;51.516;-0.470;2024-01-30T06:01:48;102025.88;;;6.52;44.16
39954;BME280;25631;51.516;-0.470;2024-01-30T06:04:25;102026.11;;;6.41;44.00
39954;BME280;25631;51.516;-0.470;2024-01-30T06:07:01;102033.26;;;6.35;44.02
39954;BME280;25631;51.516;-0.470;2024-01-30T06:09:38;102034.13;;;6.45;43.92
39954;BME280;25631;51.516;-0.470;2024-01-30T06:12:15;102035.33;;;6.43;43.79
39954;BME280;25631;51.516;-0.470;2024-01-30T06:14:51;102036.70;;;6.81;43.67
39954;BME280;25631;51.516;-0.470;2024-01-30T06:17:28;102041.81;;;7.11;43.34
39954;BME280;25631;51.516;-0.470;2024-01-30T06:20:06;102044.81;;;6.65;43.21
39954;BME280;25631;51.516;-0.470;2024-01-30T06:22:42;102055.36;;;6.85;42.98
39954;BME280;25631;51.516;-0.470;2024-01-30T06:25:19;102052.89;;;5.35;42.88
39954;BME280;25631;51.516;-0.470;2024-01-30T06:27:55;102054.97;;;6.82;42.60
39954;BME280;25631;51.516;-0.470;2024-01-30T06:30:32;102063.75;;;6.77;42.62
39954;BME280;25631;51.516;-0.470;2024-01-30T06:33:08;102073.22;;;6.92;42.49
39954;BME280;25631;51.516;-0.470;2024-01-30T06:35:45;102082.81;;;6.88;42.42
39954;BME280;25631;51.516;-0.470;2024-01-30T06:38:21;102087.17;;;6.75;42.42
39954;BME280;25631;51.516;-0.470;2024-01-30T06:40:58;102089.03;;;7.07;42.28
39954;BME280;25631;51.516;-0.470;2024-01-30T06:43:34;102090.10;;;6.55;42.37
39954;BME280;25631;51.516;-0.470;2024-01-30T06:46:11;102099.12;;;6.78;42.28
39954;BME280;25631;51.516;-0.470;2024-01-30T06:48:47;102104.36;;;6.89;42.18
39954;BME280;25631;51.516;-0.470;2024-01-30T06:51:24;102107.40;;;6.89;41.88
39954;BME280;25631;51.516;-0.470;2024-01-30T06:54:00;102115.66;;;6.52;41.98
39954;BME280;25631;51.516;-0.470;2024-01-30T06:56:37;102124.06;;;6.57;41.98
39954;BME280;25631;51.516;-0.470;2024-01-30T06:59:13;102134.17;;;6.88;41.98
39954;BME280;25631;51.516;-0.470;2024-01-30T07:01:50;102139.00;;;6.70;41.64
39954;BME280;25631;51.516;-0.470;2024-01-30T07:04:26;102142.50;;;6.70;41.60
39954;BME280;25631;51.516;-0.470;2024-01-30T07:07:03;102137.83;;;6.79;41.56
39954;BME280;25631;51.516;-0.470;2024-01-30T07:09:40;102142.29;;;6.81;41.50
39954;BME280;25631;51.516;-0.470;2024-01-30T07:12:17;102143.06;;;7.28;41.24
39954;BME280;25631;51.516;-0.470;2024-01-30T07:14:53;102143.66;;;6.88;40.92
39954;BME280;25631;51.516;-0.470;2024-01-30T07:17:30;102146.38;;;6.95;40.64
39954;BME280;25631;51.516;-0.470;2024-01-30T07:20:07;102151.55;;;7.13;40.58
39954;BME280;25631;51.516;-0.470;2024-01-30T07:22:44;102157.12;;;7.01;40.13
39954;BME280;25631;51.516;-0.470;2024-01-30T07:25:20;102166.05;;;6.90;40.12
39954;BME280;25631;51.516;-0.470;2024-01-30T07:27:57;102180.69;;;6.95;40.05
39954;BME280;25631;51.516;-0.470;2024-01-30T07:30:33;102191.88;;;7.20;39.84
39954;BME280;25631;51.516;-0.470;2024-01-30T07:33:10;102194.89;;;6.85;39.78
39954;BME280;25631;51.516;-0.470;2024-01-30T07:35:46;102193.73;;;7.07;39.58
39954;BME280;25631;51.516;-0.470;2024-01-30T07:38:23;102192.71;;;7.03;39.35
39954;BME280;25631;51.516;-0.470;2024-01-30T07:40:59;102193.91;;;6.88;39.17
39954;BME280;25631;51.516;-0.470;2024-01-30T07:43:36;102203.95;;;7.19;38.98
39954;BME280;25631;51.516;-0.470;2024-01-30T07:46:12;102214.57;;;7.20;38.95
39954;BME280;25631;51.516;-0.470;2024-01-30T07:48:48;102226.97;;;6.97;38.86
39954;BME280;25631;51.516;-0.470;2024-01-30T07:51:25;102235.95;;;6.78;38.90
39954;BME280;25631;51.516;-0.470;2024-01-30T07:54:01;102239.19;;;7.41;38.72
39954;BME280;25631;51.516;-0.470;2024-01-30T07:56:38;102246.89;;;7.24;38.74
39954;BME280;25631;51.516;-0.470;2024-01-30T07:59:14;102245.26;;;6.97;38.74
39954;BME280;25631;51.516;-0.470;2024-01-30T08:01:50;102255.67;;;6.72;38.65
39954;BME280;25631;51.516;-0.470;2024-01-30T08:04:27;102261.04;;;6.69;38.66
39954;BME280;25631;51.516;-0.470;2024-01-30T08:07:04;102264.34;;;6.95;38.53
39954;BME280;25631;51.516;-0.470;2024-01-30T08:09:40;102275.34;;;7.12;38.44
39954;BME280;25631;51.516;-0.470;2024-01-30T08:12:17;102279.74;;;7.07;38.37
39954;BME280;25631;51.516;-0.470;2024-01-30T08:14:53;102286.98;;;7.30;38.29
39954;BME280;25631;51.516;-0.470;2024-01-30T08:17:30;102290.08;;;6.94;38.27
39954;BME280;25631;51.516;-0.470;2024-01-30T08:20:07;102297.82;;;7.18;38.07
39954;BME280;25631;51.516;-0.470;2024-01-30T08:22:44;102295.38;;;7.19;38.17
39954;BME280;25631;51.516;-0.470;2024-01-30T08:25:20;102303.92;;;7.29;38.14
39954;BME280;25631;51.516;-0.470;2024-01-30T08:27:57;102310.63;;;7.08;38.06
39954;BME280;25631;51.516;-0.470;2024-01-30T08:30:33;102310.00;;;7.05;38.07
39954;BME280;25631;51.516;-0.470;2024-01-30T08:33:10;102309.57;;;7.09;38.08
39954;BME280;25631;51.516;-0.470;2024-01-30T08:35:46;102318.02;;;7.08;38.07
39954;BME280;25631;51.516;-0.470;2024-01-30T08:38:22;102319.98;;;7.36;38.22
39954;BME280;25631;51.516;-0.470;2024-01-30T08:40:59;102317.96;;;6.84;38.43
39954;BME280;25631;51.516;-0.470;2024-01-30T08:43:35;102326.42;;;7.14;38.29
39954;BME280;25631;51.516;-0.470;2024-01-30T08:46:12;102339.37;;;6.87;38.41
39954;BME280;25631;51.516;-0.470;2024-01-30T08:48:48;102342.37;;;7.22;38.31
39954;BME280;25631;51.516;-0.470;2024-01-30T08:51:24;102349.39;;;7.16;38.15
39954;BME280;25631;51.516;-0.470;2024-01-30T08:54:01;102355.46;;;7.36;38.11
39954;BME280;25631;51.516;-0.470;2024-01-30T08:56:38;102362.77;;;7.16;37.98
39954;BME280;25631;51.516;-0.470;2024-01-30T08:59:14;102370.56;;;7.00;37.95
39954;BME280;25631;51.516;-0.470;2024-01-30T09:01:50;102377.04;;;7.00;37.96
39954;BME280;25631;51.516;-0.470;2024-01-30T09:04:27;102383.25;;;6.87;38.13
39954;BME280;25631;51.516;-0.470;2024-01-30T09:07:03;102386.37;;;6.97;38.16
39954;BME280;25631;51.516;-0.470;2024-01-30T09:09:40;102392.02;;;7.22;38.10
39954;BME280;25631;51.516;-0.470;2024-01-30T09:12:17;102401.33;;;7.03;38.08
39954;BME280;25631;51.516;-0.470;2024-01-30T09:14:53;102396.49;;;6.96;38.21
39954;BME280;25631;51.516;-0.470;2024-01-30T09:17:30;102403.79;;;7.09;38.15
39954;BME280;25631;51.516;-0.470;2024-01-30T09:20:07;102403.39;;;7.34;38.12
39954;BME280;25631;51.516;-0.470;2024-01-30T09:22:44;102405.06;;;7.31;37.87
39954;BME280;25631;51.516;-0.470;2024-01-30T09:25:20;102406.86;;;7.09;37.80
39954;BME280;25631;51.516;-0.470;2024-01-30T09:27:57;102413.10;;;6.91;37.93
39954;BME280;25631;51.516;-0.470;2024-01-30T09:30:34;102414.04;;;7.14;37.89
39954;BME280;25631;51.516;-0.470;2024-01-30T09:33:10;102421.12;;;7.32;37.79
39954;BME280;25631;51.516;-0.470;2024-01-30T09:35:47;102425.44;;;7.65;37.76
39954;BME280;25631;51.516;-0.470;2024-01-30T09:38:23;102429.80;;;7.51;37.79
39954;BME280;25631;51.516;-0.470;2024-01-30T09:41:03;102437.80;;;7.44;37.54
39954;BME280;25631;51.516;-0.470;2024-01-30T09:43:42;102439.55;;;7.75;37.50
39954;BME280;25631;51.516;-0.470;2024-01-30T09:46:23;102445.08;;;7.59;37.48
39954;BME280;25631;51.516;-0.470;2024-01-30T09:49:03;102450.36;;;7.75;37.60
39954;BME280;25631;51.516;-0.470;2024-01-30T09:51:40;102451.26;;;7.64;37.43
39954;BME280;25631;51.516;-0.470;2024-01-30T09:54:19;102452.96;;;7.62;37.27
39954;BME280;25631;51.516;-0.470;2024-01-30T09:56:56;102458.09;;;8.00;37.25
39954;BME280;25631;51.516;-0.470;2024-01-30T09:59:33;102463.45;;;7.94;37.06
39954;BME280;25631;51.516;-0.470;2024-01-30T10:02:10;102466.47;;;7.89;36.81
39954;BME280;25631;51.516;-0.470;2024-01-30T10:04:48;102471.30;;;8.02;36.63
39954;BME280;25631;51.516;-0.470;2024-01-30T10:07:24;102476.67;;;8.20;36.61
39954;BME280;25631;51.516;-0.470;2024-01-30T10:10:01;102474.01;;;8.08;36.37
39954;BME280;25631;51.516;-0.470;2024-01-30T10:12:39;102477.01;;;8.16;36.25
39954;BME280;25631;51.516;-0.470;2024-01-30T10:15:17;102486.24;;;8.08;35.91
39954;BME280;25631;51.516;-0.470;2024-01-30T10:17:54;102488.41;;;7.84;35.77
39954;BME280;25631;51.516;-0.470;2024-01-30T10:20:30;102494.02;;;7.60;35.81
39954;BME280;25631;51.516;-0.470;2024-01-30T10:23:07;102501.11;;;8.14;35.32
39954;BME280;25631;51.516;-0.470;2024-01-30T10:25:43;102503.14;;;7.97;35.15
39954;BME280;25631;51.516;-0.470;2024-01-30T10:28:20;102515.65;;;8.08;35.20
39954;BME280;25631;51.516;-0.470;2024-01-30T10:30:58;102520.10;;;7.68;35.16
39954;BME280;25631;51.516;-0.470;2024-01-30T10:33:35;102528.47;;;7.78;34.82
39954;BME280;25631;51.516;-0.470;2024-01-30T10:36:14;102533.63;;;7.63;34.61
39954;BME280;25631;51.516;-0.470;2024-01-30T10:38:51;102534.96;;;7.95;34.55
39954;BME280;25631;51.516;-0.470;2024-01-30T10:41:31;102547.04;;;7.80;34.74
39954;BME280;25631;51.516;-0.470;2024-01-30T10:44:11;102552.41;;;7.54;34.41
39954;BME280;25631;51.516;-0.470;2024-01-30T10:46:55;102559.02;;;7.74;34.37
39954;BME280;25631;51.516;-0.470;2024-01-30T10:49:34;102558.46;;;7.72;34.52
39954;BME280;25631;51.516;-0.470;2024-01-30T10:52:11;102564.14;;;7.37;34.45
39954;BME280;25631;51.516;-0.470;2024-01-30T10:54:50;102569.62;;;7.70;34.43
39954;BME280;25631;51.516;-0.470;2024-01-30T10:57:27;102575.52;;;7.77;34.50
39954;BME280;25631;51.516;-0.470;2024-01-30T11:00:07;102580.39;;;7.59;34.73
39954;BME280;25631;51.516;-0.470;2024-01-30T11:02:45;102588.39;;;7.66;34.84
39954;BME280;25631;51.516;-0.470;2024-01-30T11:05:24;102596.27;;;7.45;34.70
39954;BME280;25631;51.516;-0.470;2024-01-30T11:08:11;102597.08;;;7.92;34.65
39954;BME280;25631;51.516;-0.470;2024-01-30T11:10:47;102597.58;;;7.70;34.61
39954;BME280;25631;51.516;-0.470;2024-01-30T11:13:27;102595.63;;;7.74;34.54
39954;BME280;25631;51.516;-0.470;2024-01-30T11:16:04;102595.62;;;7.90;34.50
39954;BME280;25631;51.516;-0.470;2024-01-30T11:18:41;102595.81;;;7.67;34.42
39954;BME280;25631;51.516;-0.470;2024-01-30T11:21:17;102595.56;;;7.88;34.39
39954;BME280;25631;51.516;-0.470;2024-01-30T11:23:55;102597.25;;;7.70;34.38
39954;BME280;25631;51.516;-0.470;2024-01-30T11:26:31;102603.03;;;7.77;34.43
39954;BME280;25631;51.516;-0.470;2024-01-30T11:29:08;102606.80;;;7.76;34.58
39954;BME280;25631;51.516;-0.470;2024-01-30T11:31:53;102610.99;;;7.62;34.69
39954;BME280;25631;51.516;-0.470;2024-01-30T11:34:29;102614.24;;;7.60;34.65
39954;BME280;25631;51.516;-0.470;2024-01-30T11:37:09;102609.93;;;7.42;34.52
39954;BME280;25631;51.516;-0.470;2024-01-30T11:39:48;102613.38;;;8.03;34.39
39954;BME280;25631;51.516;-0.470;2024-01-30T11:42:26;102613.42;;;8.07;34.42
39954;BME280;25631;51.516;-0.470;2024-01-30T11:45:03;102615.86;;;7.71;34.30
39954;BME280;25631;51.516;-0.470;2024-01-30T11:47:41;102621.98;;;7.80;34.10
39954;BME280;25631;51.516;-0.470;2024-01-30T11:50:17;102625.95;;;7.81;34.08
39954;BME280;25631;51.516;-0.470;2024-01-30T11:52:54;102629.42;;;7.95;34.16
39954;BME280;25631;51.516;-0.470;2024-01-30T11:55:31;102630.00;;;7.99;34.20
39954;BME280;25631;51.516;-0.470;2024-01-30T11:58:08;102630.23;;;7.99;34.20
39954;BME280;25631;51.516;-0.470;2024-01-30T12:00:53;102632.12;;;7.86;34.35
39954;BME280;25631;51.516;-0.470;2024-01-30T12:03:29;102628.28;;;7.84;34.44
39954;BME280;25631;51.516;-0.470;2024-01-30T12:06:06;102632.24;;;7.84;34.48
39954;BME280;25631;51.516;-0.470;2024-01-30T12:08:42;102638.48;;;8.04;34.49
39954;BME280;25631;51.516;-0.470;2024-01-30T12:11:19;102640.40;;;7.92;34.46
39954;BME280;25631;51.516;-0.470;2024-01-30T12:13:55;102639.99;;;7.96;34.48
39954;BME280;25631;51.516;-0.470;2024-01-30T12:16:32;102642.98;;;7.65;34.53
39954;BME280;25631;51.516;-0.470;2024-01-30T12:19:09;102643.41;;;8.10;34.55
39954;BME280;25631;51.516;-0.470;2024-01-30T12:21:46;102649.15;;;7.89;34.59
39954;BME280;25631;51.516;-0.470;2024-01-30T12:24:22;102652.98;;;7.73;34.64
39954;BME280;25631;51.516;-0.470;2024-01-30T12:26:59;102656.02;;;7.67;34.62
39954;BME280;25631;51.516;-0.470;2024-01-30T12:29:36;102662.22;;;7.60;34.25
39954;BME280;25631;51.516;-0.470;2024-01-30T12:32:15;102665.98;;;7.94;34.28
39954;BME280;25631;51.516;-0.470;2024-01-30T12:34:55;102664.40;;;7.94;34.28
39954;BME280;25631;51.516;-0.470;2024-01-30T12:37:31;102667.15;;;7.94;34.49
39954;BME280;25631;51.516;-0.470;2024-01-30T12:40:08;102674.11;;;7.80;34.45
39954;BME280;25631;51.516;-0.470;2024-01-30T12:42:46;102677.65;;;7.75;34.46
39954;BME280;25631;51.516;-0.470;2024-01-30T12:45:23;102676.78;;;7.61;34.60
39954;BME280;25631;51.516;-0.470;2024-01-30T12:48:01;102682.87;;;7.64;34.61
39954;BME280;25631;51.516;-0.470;2024-01-30T12:50:37;102682.62;;;8.01;34.66
39954;BME280;25631;51.516;-0.470;2024-01-30T12:53:14;102688.30;;;8.01;34.32
39954;BME280;25631;51.516;-0.470;2024-01-30T12:55:50;102687.40;;;7.59;34.07
39954;BME280;25631;51.516;-0.470;2024-01-30T12:58:27;102690.92;;;7.47;33.96
39954;BME280;25631;51.516;-0.470;2024-01-30T13:01:03;102692.78;;;7.19;33.98
39954;BME280;25631;51.516;-0.470;2024-01-30T13:03:40;102696.62;;;7.55;33.91
39954;BME280;25631;51.516;-0.470;2024-01-30T13:06:16;102698.25;;;7.76;33.86
39954;BME280;25631;51.516;-0.470;2024-01-30T13:08:53;102698.97;;;7.48;33.97
39954;BME280;25631;51.516;-0.470;2024-01-30T13:11:29;102704.86;;;7.54;33.96
39954;BME280;25631;51.516;-0.470;2024-01-30T13:14:06;102700.95;;;7.53;33.95
39954;BME280;25631;51.516;-0.470;2024-01-30T13:16:42;102704.25;;;7.68;34.00
39954;BME280;25631;51.516;-0.470;2024-01-30T13:19:19;102706.69;;;7.89;34.03
39954;BME280;25631;51.516;-0.470;2024-01-30T13:21:55;102707.99;;;7.92;33.98
39954;BME280;25631;51.516;-0.470;2024-01-30T13:24:31;102706.40;;;7.79;34.12
39954;BME280;25631;51.516;-0.470;2024-01-30T13:27:08;102699.53;;;7.85;34.18
39954;BME280;25631;51.516;-0.470;2024-01-30T13:29:44;102700.63;;;7.84;34.15
39954;BME280;25631;51.516;-0.470;2024-01-30T13:32:20;102710.16;;;8.00;34.00
39954;BME280;25631;51.516;-0.470;2024-01-30T13:34:57;102717.48;;;7.99;33.77
39954;BME280;25631;51.516;-0.470;2024-01-30T13:37:33;102716.95;;;8.06;33.76
39954;BME280;25631;51.516;-0.470;2024-01-30T13:40:10;102719.27;;;8.18;33.74